Terminal Aerodrome Forecast
Issued by NWS

Home | Current Version | Previous Version | Text Only | Print | Product List | Glossary On
Versions: 1 2 3 4 5 6 7 8 9 10 11 12 13 14 15 16 17
168
FTUS43 KICT 210524
TAFSLN
TAF
KSLN 210524Z 2106/2206 35011KT P6SM SCT100
     FM210800 36012KT P6SM BKN120
     FM211700 04009KT P6SM SCT110
     FM211900 04008KT P6SM BKN100
     FM220300 06008KT P6SM OVC025=

USA.gov is the U.S. government's official web portal to all federal, state and local government web resources and services.